createdAt,value
2018-11-11T00:00:27.374Z,9.80
2018-11-11T00:02:55.741Z,9.80
2018-11-11T00:05:23.860Z,9.80
2018-11-11T00:07:51.973Z,9.80
2018-11-11T00:10:20.110Z,9.80
2018-11-11T00:12:48.234Z,9.80
2018-11-11T00:20:14.398Z,9.90
2018-11-11T00:22:42.784Z,9.90
2018-11-11T00:25:10.901Z,10.00
2018-11-11T00:30:12.018Z,9.90
2018-11-11T00:32:40.234Z,9.90
2018-11-11T00:35:08.778Z,9.80
2018-11-11T00:37:37.146Z,9.80
2018-11-11T00:40:05.357Z,9.80
2018-11-11T00:45:01.462Z,9.80
2018-11-11T00:47:29.586Z,9.80
2018-11-11T00:49:57.909Z,9.70
2018-11-11T00:59:49.749Z,9.50
2018-11-11T01:02:17.889Z,9.50
2018-11-11T01:04:46.152Z,9.40
2018-11-11T01:07:14.285Z,9.40
2018-11-11T01:12:10.331Z,9.30
2018-11-11T01:17:07.007Z,9.30
2018-11-11T01:19:35.178Z,9.30
2018-11-11T01:24:31.205Z,9.20
2018-11-11T01:31:55.149Z,9.20
2018-11-11T01:34:23.282Z,9.20
2018-11-11T01:36:51.393Z,9.20
2018-11-11T01:41:47.393Z,9.10
2018-11-11T01:44:15.497Z,9.10
2018-11-11T01:54:07.366Z,9.10
2018-11-11T01:56:35.513Z,9.10
2018-11-11T01:59:03.592Z,9.00
2018-11-11T02:01:31.697Z,9.00
2018-11-11T02:03:59.820Z,9.00
2018-11-11T02:06:27.925Z,9.00
2018-11-11T02:08:56.033Z,9.00
2018-11-11T02:13:52.042Z,9.00
2018-11-11T02:16:20.165Z,9.00
2018-11-11T02:18:48.280Z,9.00
2018-11-11T02:21:16.423Z,9.00
2018-11-11T02:23:44.501Z,9.10
2018-11-11T02:28:40.534Z,9.10
2018-11-11T02:31:08.646Z,9.20
2018-11-11T02:38:32.570Z,9.10
2018-11-11T02:41:01.507Z,9.00
2018-11-11T02:43:29.681Z,9.00
2018-11-11T02:45:57.845Z,9.00
2018-11-11T02:51:04.877Z,8.90
2018-11-11T02:58:28.819Z,8.90
2018-11-11T03:03:24.893Z,8.80
2018-11-11T03:05:53.010Z,8.80
2018-11-11T03:08:21.158Z,8.70
2018-11-11T03:10:49.298Z,8.70
2018-11-11T03:13:17.426Z,8.70
2018-11-11T03:15:45.560Z,8.70
2018-11-11T03:18:13.693Z,8.70
2018-11-11T03:28:05.550Z,8.80
2018-11-11T03:30:33.678Z,8.80
2018-11-11T03:37:57.625Z,8.80
2018-11-11T03:40:25.753Z,8.80
2018-11-11T03:45:22.067Z,8.80
2018-11-11T03:47:51.364Z,8.80
2018-11-11T03:52:47.914Z,8.80
2018-11-11T03:55:16.154Z,8.80
2018-11-11T04:02:41.002Z,8.90
2018-11-11T04:05:10.510Z,8.80
2018-11-11T04:07:38.922Z,8.90
2018-11-11T04:10:08.960Z,8.80
2018-11-11T04:12:37.122Z,8.80
2018-11-11T04:15:06.569Z,8.70
2018-11-11T04:17:34.883Z,8.60
2018-11-11T04:20:03.004Z,8.60
2018-11-11T04:22:31.332Z,8.60
2018-11-11T04:24:59.458Z,8.60
2018-11-11T04:27:27.595Z,8.60
2018-11-11T04:32:23.689Z,8.40
2018-11-11T04:37:19.730Z,8.30
2018-11-11T04:44:43.761Z,8.40
2018-11-11T04:47:11.886Z,8.20
2018-11-11T04:59:31.670Z,8.00
2018-11-11T05:01:59.807Z,8.10
2018-11-11T05:04:27.964Z,8.00
2018-11-11T05:09:23.974Z,8.00
2018-11-11T05:11:52.106Z,8.00
2018-11-11T05:16:48.180Z,8.20
2018-11-11T05:19:16.308Z,8.10
2018-11-11T05:26:40.253Z,8.30
2018-11-11T05:29:08.410Z,8.40
2018-11-11T05:31:36.533Z,8.40
2018-11-11T05:34:04.694Z,8.40
2018-11-11T05:36:32.810Z,8.40
2018-11-11T05:41:28.910Z,8.40
2018-11-11T05:43:57.038Z,8.50
2018-11-11T05:53:48.929Z,8.60
2018-11-11T05:56:17.052Z,8.60
2018-11-11T05:58:45.198Z,8.70
2018-11-11T06:01:13.383Z,8.70
2018-11-11T06:03:41.511Z,8.70
2018-11-11T06:06:09.634Z,8.70
2018-11-11T06:08:37.810Z,8.80
2018-11-11T06:11:05.937Z,8.80
2018-11-11T06:13:34.061Z,8.90
2018-11-11T06:16:02.202Z,8.80
2018-11-11T06:18:30.335Z,8.80
2018-11-11T06:23:26.396Z,8.90
2018-11-11T06:25:54.512Z,8.90
2018-11-11T06:28:22.656Z,8.90
2018-11-11T06:30:50.765Z,8.80
2018-11-11T06:33:18.905Z,8.80
2018-11-11T06:35:47.022Z,8.80
2018-11-11T06:38:15.158Z,8.90
2018-11-11T06:48:07.158Z,9.00
2018-11-11T06:55:31.072Z,9.20
2018-11-11T06:57:59.236Z,9.20
2018-11-11T07:04:07.513Z,9.30
2018-11-11T07:06:35.638Z,9.30
2018-11-11T07:09:05.248Z,9.40
2018-11-11T07:11:33.390Z,9.40
2018-11-11T07:14:01.619Z,9.40
2018-11-11T07:16:29.749Z,9.40
2018-11-11T07:18:57.990Z,9.40
2018-11-11T07:21:26.102Z,9.40
2018-11-11T07:31:17.951Z,9.40
2018-11-11T07:33:46.087Z,9.40
2018-11-11T07:36:14.214Z,9.40
2018-11-11T07:38:42.355Z,9.30
2018-11-11T07:41:10.482Z,9.40
2018-11-11T07:43:38.988Z,9.30
2018-11-11T07:51:03.106Z,9.30
2018-11-11T07:53:31.279Z,9.20
2018-11-11T07:55:59.418Z,9.20
2018-11-11T07:58:27.593Z,9.20
2018-11-11T08:03:23.600Z,9.20
2018-11-11T08:08:19.638Z,9.20
2018-11-11T08:10:59.305Z,9.20
2018-11-11T08:13:27.438Z,9.20
2018-11-11T08:15:55.554Z,9.30
2018-11-11T08:23:19.490Z,9.50
2018-11-11T08:25:47.682Z,9.50
2018-11-11T08:28:15.802Z,9.50
2018-11-11T08:30:43.936Z,9.60
2018-11-11T08:33:12.061Z,9.60
2018-11-11T08:35:40.186Z,9.70
2018-11-11T08:38:08.361Z,9.70
2018-11-11T08:40:36.545Z,9.80
2018-11-11T08:43:04.723Z,9.90
2018-11-11T08:48:00.819Z,10.00
2018-11-11T08:50:28.894Z,10.10
2018-11-11T08:52:57.074Z,10.10
2018-11-11T08:55:25.210Z,10.20
2018-11-11T09:00:27.963Z,10.30
2018-11-11T09:05:24.075Z,10.30
2018-11-11T09:07:52.941Z,10.30
2018-11-11T09:10:22.420Z,10.40
2018-11-11T09:12:50.602Z,10.40
2018-11-11T09:15:18.730Z,10.40
2018-11-11T09:22:45.038Z,10.50
2018-11-11T09:27:42.561Z,10.60
2018-11-11T09:30:13.121Z,10.70
2018-11-11T09:32:42.598Z,10.80
2018-11-11T09:35:10.841Z,10.90
2018-11-11T09:37:39.455Z,11.00
2018-11-11T09:40:08.554Z,11.10
2018-11-11T09:42:36.763Z,11.10
2018-11-11T09:50:03.136Z,11.00
2018-11-11T09:57:27.448Z,11.10
2018-11-11T09:59:55.691Z,11.10
2018-11-11T10:02:24.374Z,11.20
2018-11-11T10:08:30.503Z,11.20
2018-11-11T10:11:09.649Z,11.20
2018-11-11T10:13:45.781Z,11.20
2018-11-11T10:24:32.049Z,11.60
2018-11-11T10:29:38.127Z,11.80
2018-11-11T10:32:21.654Z,11.90
2018-11-11T10:34:53.262Z,11.90
2018-11-11T10:37:24.532Z,11.90
2018-11-11T10:39:55.706Z,12.00
2018-11-11T10:45:32.679Z,12.20
2018-11-11T10:53:10.305Z,12.40
2018-11-11T10:55:38.463Z,12.40
2018-11-11T10:58:06.623Z,12.40
2018-11-11T11:00:40.147Z,12.30
2018-11-11T11:05:41.638Z,12.10
2018-11-11T11:08:09.783Z,12.10
2018-11-11T11:10:38.006Z,12.10
2018-11-11T11:13:06.188Z,12.00
2018-11-11T11:15:34.303Z,12.00
2018-11-11T11:18:02.491Z,12.00
2018-11-11T11:20:30.643Z,12.00
2018-11-11T11:22:58.803Z,12.10
2018-11-11T11:27:54.889Z,12.20
2018-11-11T11:30:23.110Z,12.20
2018-11-11T11:35:19.260Z,12.30
2018-11-11T11:37:47.342Z,12.40
2018-11-11T11:40:15.499Z,12.50
2018-11-11T11:45:12.299Z,12.50
2018-11-11T11:47:41.087Z,12.60
2018-11-11T11:50:11.105Z,12.60
2018-11-11T11:55:07.750Z,12.70
2018-11-11T12:00:04.071Z,12.70
2018-11-11T12:05:00.126Z,12.60
2018-11-11T12:12:24.158Z,12.80
2018-11-11T12:14:52.293Z,12.80
2018-11-11T12:17:20.453Z,12.80
2018-11-11T12:19:48.580Z,12.80
2018-11-11T12:24:44.616Z,12.90
2018-11-11T12:29:40.681Z,13.00
2018-11-11T12:32:10.266Z,13.00
2018-11-11T12:34:38.592Z,12.90
2018-11-11T12:37:06.883Z,13.00
2018-11-11T12:39:35.095Z,13.00
2018-11-11T12:42:04.250Z,13.00
2018-11-11T12:44:33.647Z,13.00
2018-11-11T12:47:01.873Z,13.10
2018-11-11T12:49:29.882Z,13.00
2018-11-11T12:54:27.377Z,13.10
2018-11-11T12:56:55.536Z,13.10
2018-11-11T12:59:23.763Z,13.20
2018-11-11T13:04:20.771Z,13.20
2018-11-11T13:06:49.163Z,13.20
2018-11-11T13:09:18.119Z,13.30
2018-11-11T13:11:46.264Z,13.20
2018-11-11T13:14:14.494Z,13.30
2018-11-11T13:16:43.758Z,13.30
2018-11-11T13:26:36.250Z,13.30
2018-11-11T13:29:04.837Z,13.30
2018-11-11T13:36:28.786Z,13.20
2018-11-11T13:38:56.934Z,13.20
2018-11-11T13:41:25.083Z,13.20
2018-11-11T13:43:53.234Z,13.10
2018-11-11T13:51:17.231Z,13.20
2018-11-11T13:53:45.377Z,13.30
2018-11-11T13:56:13.532Z,13.30
2018-11-11T13:58:41.686Z,13.30
2018-11-11T14:01:09.831Z,13.30
2018-11-11T14:06:05.887Z,13.40
2018-11-11T14:08:34.491Z,13.40
2018-11-11T14:13:30.882Z,13.40
2018-11-11T14:23:22.798Z,13.40
2018-11-11T14:25:51.029Z,13.50
2018-11-11T14:28:19.073Z,13.50
2018-11-11T14:30:47.221Z,13.50
2018-11-11T14:33:15.385Z,14.20
2018-11-11T14:35:43.522Z,13.40
2018-11-11T14:38:11.730Z,13.30
2018-11-11T14:43:07.714Z,13.20
2018-11-11T14:50:31.751Z,13.10
2018-11-11T15:00:34.438Z,12.80
2018-11-11T15:03:09.782Z,12.80
2018-11-11T15:13:01.878Z,12.60
2018-11-11T15:15:30.007Z,12.60
2018-11-11T15:22:54.956Z,12.50
2018-11-11T15:25:24.486Z,12.40
2018-11-11T15:27:52.643Z,12.30
2018-11-11T15:30:22.156Z,12.30
2018-11-11T15:32:50.734Z,12.20
2018-11-11T15:35:18.970Z,12.10
2018-11-11T15:40:16.483Z,12.10
2018-11-11T15:42:44.695Z,12.00
2018-11-11T15:45:15.082Z,12.00
2018-11-11T15:52:41.746Z,11.80
2018-11-11T15:57:38.943Z,11.70
2018-11-11T16:02:36.927Z,11.50
2018-11-11T16:10:01.397Z,11.10
2018-11-11T16:12:29.588Z,11.10
2018-11-11T16:22:21.456Z,10.70
2018-11-11T16:24:49.627Z,10.70
2018-11-11T16:27:18.404Z,10.60
2018-11-11T16:29:49.728Z,10.60
2018-11-11T16:32:18.701Z,10.50
2018-11-11T16:34:48.411Z,10.30
2018-11-11T16:39:45.937Z,10.00
2018-11-11T16:44:42.078Z,9.80
2018-11-11T16:57:07.291Z,9.20
2018-11-11T17:02:03.426Z,9.20
2018-11-11T17:04:31.654Z,9.30
2018-11-11T17:06:59.706Z,9.30
2018-11-11T17:14:23.758Z,9.50
2018-11-11T17:16:52.899Z,9.60
2018-11-11T17:21:49.291Z,9.60
2018-11-11T17:24:17.282Z,9.60
2018-11-11T17:26:45.478Z,9.60
2018-11-11T17:31:41.563Z,9.50
2018-11-11T17:39:08.849Z,9.50
2018-11-11T17:41:37.404Z,9.50
2018-11-11T17:46:33.458Z,9.40
2018-11-11T17:49:03.120Z,9.40
2018-11-11T17:54:00.195Z,9.50
2018-11-11T17:56:29.414Z,9.60
2018-11-11T17:58:57.561Z,9.70
2018-11-11T18:01:25.714Z,9.80
2018-11-11T18:06:23.763Z,9.80
2018-11-11T18:08:51.923Z,9.70
2018-11-11T18:13:49.065Z,9.70
2018-11-11T18:18:46.579Z,9.70
2018-11-11T18:31:08.506Z,9.40
2018-11-11T18:33:36.650Z,9.50
2018-11-11T18:36:05.683Z,9.50
2018-11-11T18:38:33.819Z,9.60
2018-11-11T18:41:02.726Z,9.60
2018-11-11T18:43:31.586Z,9.80
2018-11-11T18:50:56.652Z,9.90
2018-11-11T18:53:24.825Z,9.90
2018-11-11T18:55:53.094Z,9.90
2018-11-11T19:05:46.279Z,10.00
2018-11-11T19:08:14.420Z,9.90
2018-11-11T19:10:43.415Z,9.80
2018-11-11T19:13:11.660Z,9.70
2018-11-11T19:18:09.211Z,9.50
2018-11-11T19:25:34.407Z,9.40
2018-11-11T19:28:03.801Z,9.40
2018-11-11T19:30:32.831Z,9.30
2018-11-11T19:33:00.842Z,9.40
2018-11-11T19:35:28.973Z,9.40
2018-11-11T19:37:58.470Z,9.40
2018-11-11T19:40:27.754Z,9.40
2018-11-11T19:42:57.066Z,9.30
2018-11-11T19:47:54.946Z,9.40
2018-11-11T19:50:24.986Z,9.40
2018-11-11T19:52:54.573Z,9.40
2018-11-11T19:55:23.046Z,9.50
2018-11-11T19:57:51.183Z,9.40
2018-11-11T20:00:22.764Z,9.50
2018-11-11T20:02:51.957Z,9.50
2018-11-11T20:07:49.621Z,9.60
2018-11-11T20:10:18.648Z,9.60
2018-11-11T20:12:46.775Z,9.60
2018-11-11T20:15:16.223Z,9.70
2018-11-11T20:17:44.645Z,9.60
2018-11-11T20:20:15.441Z,9.70
2018-11-11T20:22:43.622Z,9.60
2018-11-11T20:27:42.401Z,9.60
2018-11-11T20:32:41.499Z,9.60
2018-11-11T20:35:11.179Z,9.60
2018-11-11T20:37:39.978Z,9.60
2018-11-11T20:40:11.022Z,9.60
2018-11-11T20:45:08.838Z,9.50
2018-11-11T20:47:38.210Z,9.50
2018-11-11T20:50:09.042Z,9.40
2018-11-11T20:52:37.370Z,9.40
2018-11-11T20:55:06.678Z,9.30
2018-11-11T20:57:34.970Z,9.30
2018-11-11T21:00:03.107Z,9.30
2018-11-11T21:02:31.319Z,9.20
2018-11-11T21:04:59.464Z,9.00
2018-11-11T21:07:27.661Z,8.90
2018-11-11T21:09:55.789Z,8.90
2018-11-11T21:14:52.689Z,8.90
2018-11-11T21:24:45.069Z,8.60
2018-11-11T21:27:13.222Z,8.60
2018-11-11T21:29:41.394Z,8.50
2018-11-11T21:32:10.739Z,8.40
2018-11-11T21:34:38.890Z,8.50
2018-11-11T21:37:08.645Z,8.50
2018-11-11T21:42:05.341Z,8.70
2018-11-11T21:44:34.795Z,8.70
2018-11-11T21:47:03.213Z,8.70
2018-11-11T21:54:27.193Z,8.80
2018-11-11T21:56:55.467Z,8.80
2018-11-11T21:59:23.775Z,8.90
2018-11-11T22:01:51.957Z,8.90
2018-11-11T22:09:18.553Z,8.90
2018-11-11T22:11:48.100Z,9.00
2018-11-11T22:14:16.721Z,9.00
2018-11-11T22:19:15.518Z,8.90
2018-11-11T22:24:14.119Z,8.90
2018-11-11T22:26:43.551Z,8.80
2018-11-11T22:29:13.963Z,8.80
2018-11-11T22:31:42.464Z,8.70
2018-11-11T22:34:10.635Z,8.70
2018-11-11T22:36:38.840Z,8.70
2018-11-11T22:39:11.363Z,8.60
2018-11-11T22:41:39.618Z,8.60
2018-11-11T22:46:39.272Z,8.60
2018-11-11T22:51:36.753Z,8.60
2018-11-11T22:54:06.718Z,8.60
2018-11-11T22:56:36.444Z,8.70
2018-11-11T22:59:04.814Z,8.70
2018-11-11T23:01:32.943Z,8.60
2018-11-11T23:06:29.014Z,8.50
2018-11-11T23:08:58.485Z,8.50
2018-11-11T23:11:27.486Z,8.50
2018-11-11T23:13:56.332Z,8.40
2018-11-11T23:16:26.151Z,8.30
2018-11-11T23:18:56.078Z,8.30
2018-11-11T23:21:24.851Z,8.20
2018-11-11T23:23:53.006Z,8.30
2018-11-11T23:26:21.150Z,8.20
2018-11-11T23:28:49.310Z,8.10
2018-11-11T23:31:17.514Z,8.20
2018-11-11T23:41:12.290Z,8.10
2018-11-11T23:43:40.550Z,8.10
2018-11-11T23:46:10.600Z,8.20
2018-11-11T23:48:39.139Z,8.20
2018-11-11T23:51:08.559Z,8.20
2018-11-11T23:53:37.259Z,8.20
2018-11-11T23:56:07.913Z,8.30
